sensor_id;sensor_type;location;lat;lon;timestamp;P1;durP1;ratioP1;P2;durP2;ratioP2
2656;SDS011;1338;48.176;11.792;2024-03-17T00:00:45;5.00;;;4.50;;
2656;SDS011;1338;48.176;11.792;2024-03-17T00:03:12;4.77;;;4.37;;
2656;SDS011;1338;48.176;11.792;2024-03-17T00:05:38;5.27;;;4.57;;
2656;SDS011;1338;48.176;11.792;2024-03-17T00:08:07;5.40;;;4.70;;
2656;SDS011;1338;48.176;11.792;2024-03-17T00:10:34;5.97;;;4.70;;
2656;SDS011;1338;48.176;11.792;2024-03-17T00:13:01;5.43;;;4.70;;
2656;SDS011;1338;48.176;11.792;2024-03-17T00:15:27;7.10;;;4.60;;
2656;SDS011;1338;48.176;11.792;2024-03-17T00:17:55;5.40;;;4.90;;
2656;SDS011;1338;48.176;11.792;2024-03-17T00:20:21;4.87;;;4.40;;
2656;SDS011;1338;48.176;11.792;2024-03-17T00:22:50;5.17;;;4.67;;
2656;SDS011;1338;48.176;11.792;2024-03-17T00:25:18;4.50;;;4.10;;
2656;SDS011;1338;48.176;11.792;2024-03-17T00:27:45;5.13;;;4.63;;
2656;SDS011;1338;48.176;11.792;2024-03-17T00:30:13;5.93;;;5.33;;
2656;SDS011;1338;48.176;11.792;2024-03-17T00:32:41;4.93;;;4.53;;
2656;SDS011;1338;48.176;11.792;2024-03-17T00:35:09;6.10;;;5.10;;
2656;SDS011;1338;48.176;11.792;2024-03-17T00:37:39;5.20;;;4.80;;
2656;SDS011;1338;48.176;11.792;2024-03-17T00:40:06;5.80;;;5.27;;
2656;SDS011;1338;48.176;11.792;2024-03-17T00:42:35;5.17;;;4.67;;
2656;SDS011;1338;48.176;11.792;2024-03-17T00:45:01;5.43;;;4.93;;
2656;SDS011;1338;48.176;11.792;2024-03-17T00:47:31;5.07;;;4.60;;
2656;SDS011;1338;48.176;11.792;2024-03-17T00:49:57;7.27;;;4.20;;
2656;SDS011;1338;48.176;11.792;2024-03-17T00:52:24;6.73;;;5.00;;
2656;SDS011;1338;48.176;11.792;2024-03-17T00:54:51;6.00;;;5.00;;
2656;SDS011;1338;48.176;11.792;2024-03-17T00:57:19;4.80;;;4.40;;
2656;SDS011;1338;48.176;11.792;2024-03-17T00:59:47;5.17;;;4.70;;
2656;SDS011;1338;48.176;11.792;2024-03-17T01:02:15;5.40;;;4.77;;
2656;SDS011;1338;48.176;11.792;2024-03-17T01:04:41;5.53;;;4.70;;
2656;SDS011;1338;48.176;11.792;2024-03-17T01:07:09;5.13;;;4.20;;
2656;SDS011;1338;48.176;11.792;2024-03-17T01:09:35;5.40;;;4.90;;
2656;SDS011;1338;48.176;11.792;2024-03-17T01:12:02;5.73;;;4.77;;
2656;SDS011;1338;48.176;11.792;2024-03-17T01:14:29;5.23;;;4.73;;
2656;SDS011;1338;48.176;11.792;2024-03-17T01:16:58;5.13;;;4.67;;
2656;SDS011;1338;48.176;11.792;2024-03-17T01:19:25;5.40;;;4.90;;
2656;SDS011;1338;48.176;11.792;2024-03-17T01:21:53;5.30;;;4.80;;
2656;SDS011;1338;48.176;11.792;2024-03-17T01:24:19;5.07;;;4.67;;
2656;SDS011;1338;48.176;11.792;2024-03-17T01:26:46;5.47;;;4.90;;
2656;SDS011;1338;48.176;11.792;2024-03-17T01:29:13;5.60;;;5.10;;
2656;SDS011;1338;48.176;11.792;2024-03-17T01:31:40;5.17;;;4.67;;
2656;SDS011;1338;48.176;11.792;2024-03-17T01:34:07;5.57;;;4.97;;
2656;SDS011;1338;48.176;11.792;2024-03-17T01:36:35;5.23;;;4.73;;
2656;SDS011;1338;48.176;11.792;2024-03-17T01:39:01;5.83;;;5.07;;
2656;SDS011;1338;48.176;11.792;2024-03-17T01:41:28;5.27;;;4.77;;
2656;SDS011;1338;48.176;11.792;2024-03-17T01:43:55;6.30;;;5.03;;
2656;SDS011;1338;48.176;11.792;2024-03-17T01:46:24;5.33;;;4.40;;
2656;SDS011;1338;48.176;11.792;2024-03-17T01:48:50;5.23;;;4.67;;
2656;SDS011;1338;48.176;11.792;2024-03-17T01:51:19;5.50;;;5.00;;
2656;SDS011;1338;48.176;11.792;2024-03-17T01:53:45;6.33;;;5.60;;
2656;SDS011;1338;48.176;11.792;2024-03-17T01:56:13;5.60;;;5.10;;
2656;SDS011;1338;48.176;11.792;2024-03-17T01:58:42;6.37;;;5.60;;
2656;SDS011;1338;48.176;11.792;2024-03-17T02:01:11;5.00;;;4.60;;
2656;SDS011;1338;48.176;11.792;2024-03-17T02:03:39;6.20;;;5.30;;
2656;SDS011;1338;48.176;11.792;2024-03-17T02:06:07;5.80;;;5.20;;
2656;SDS011;1338;48.176;11.792;2024-03-17T02:08:48;5.60;;;5.10;;
2656;SDS011;1338;48.176;11.792;2024-03-17T02:11:23;6.50;;;5.20;;
2656;SDS011;1338;48.176;11.792;2024-03-17T02:13:51;6.37;;;5.40;;
2656;SDS011;1338;48.176;11.792;2024-03-17T02:16:19;5.90;;;5.30;;
2656;SDS011;1338;48.176;11.792;2024-03-17T02:18:45;5.97;;;5.47;;
2656;SDS011;1338;48.176;11.792;2024-03-17T02:21:13;6.30;;;5.43;;
2656;SDS011;1338;48.176;11.792;2024-03-17T02:23:41;7.13;;;5.23;;
2656;SDS011;1338;48.176;11.792;2024-03-17T02:26:09;6.13;;;5.53;;
2656;SDS011;1338;48.176;11.792;2024-03-17T02:28:38;6.30;;;5.70;;
2656;SDS011;1338;48.176;11.792;2024-03-17T02:31:07;6.77;;;6.17;;
2656;SDS011;1338;48.176;11.792;2024-03-17T02:33:35;6.10;;;5.60;;
2656;SDS011;1338;48.176;11.792;2024-03-17T02:36:04;7.00;;;6.30;;
2656;SDS011;1338;48.176;11.792;2024-03-17T02:38:33;6.63;;;5.80;;
2656;SDS011;1338;48.176;11.792;2024-03-17T02:41:19;5.40;;;4.90;;
2656;SDS011;1338;48.176;11.792;2024-03-17T02:43:46;6.53;;;5.90;;
2656;SDS011;1338;48.176;11.792;2024-03-17T02:46:14;6.40;;;5.80;;
2656;SDS011;1338;48.176;11.792;2024-03-17T02:48:44;5.97;;;5.47;;
2656;SDS011;1338;48.176;11.792;2024-03-17T02:51:13;6.50;;;5.60;;
2656;SDS011;1338;48.176;11.792;2024-03-17T02:53:41;7.00;;;6.17;;
2656;SDS011;1338;48.176;11.792;2024-03-17T02:56:08;6.13;;;5.50;;
2656;SDS011;1338;48.176;11.792;2024-03-17T02:58:38;6.30;;;5.70;;
2656;SDS011;1338;48.176;11.792;2024-03-17T03:01:07;6.10;;;5.47;;
2656;SDS011;1338;48.176;11.792;2024-03-17T03:03:35;10.10;;;5.80;;
2656;SDS011;1338;48.176;11.792;2024-03-17T03:06:03;5.50;;;4.90;;
2656;SDS011;1338;48.176;11.792;2024-03-17T03:08:34;6.27;;;5.53;;
2656;SDS011;1338;48.176;11.792;2024-03-17T03:11:03;6.60;;;5.90;;
2656;SDS011;1338;48.176;11.792;2024-03-17T03:13:31;6.93;;;6.10;;
2656;SDS011;1338;48.176;11.792;2024-03-17T03:16:00;6.57;;;5.90;;
2656;SDS011;1338;48.176;11.792;2024-03-17T03:18:27;6.23;;;5.63;;
2656;SDS011;1338;48.176;11.792;2024-03-17T03:20:54;6.40;;;5.80;;
2656;SDS011;1338;48.176;11.792;2024-03-17T03:23:21;5.80;;;5.13;;
2656;SDS011;1338;48.176;11.792;2024-03-17T03:25:54;6.20;;;5.60;;
2656;SDS011;1338;48.176;11.792;2024-03-17T03:28:22;6.73;;;5.33;;
2656;SDS011;1338;48.176;11.792;2024-03-17T03:30:49;6.23;;;5.13;;
2656;SDS011;1338;48.176;11.792;2024-03-17T03:33:18;6.37;;;5.80;;
2656;SDS011;1338;48.176;11.792;2024-03-17T03:35:45;5.67;;;5.10;;
2656;SDS011;1338;48.176;11.792;2024-03-17T03:38:12;7.60;;;6.40;;
2656;SDS011;1338;48.176;11.792;2024-03-17T03:40:40;7.00;;;6.30;;
2656;SDS011;1338;48.176;11.792;2024-03-17T03:43:07;6.07;;;5.47;;
2656;SDS011;1338;48.176;11.792;2024-03-17T03:45:35;7.03;;;6.33;;
2656;SDS011;1338;48.176;11.792;2024-03-17T03:48:02;6.73;;;6.03;;
2656;SDS011;1338;48.176;11.792;2024-03-17T03:50:32;6.50;;;5.90;;
2656;SDS011;1338;48.176;11.792;2024-03-17T03:52:58;6.97;;;6.27;;
2656;SDS011;1338;48.176;11.792;2024-03-17T03:55:26;6.60;;;5.90;;
2656;SDS011;1338;48.176;11.792;2024-03-17T03:57:53;6.37;;;5.77;;
2656;SDS011;1338;48.176;11.792;2024-03-17T04:00:21;6.97;;;6.00;;
2656;SDS011;1338;48.176;11.792;2024-03-17T04:02:49;6.20;;;5.57;;
2656;SDS011;1338;48.176;11.792;2024-03-17T04:05:18;6.73;;;6.10;;
2656;SDS011;1338;48.176;11.792;2024-03-17T04:07:47;7.90;;;6.57;;
2656;SDS011;1338;48.176;11.792;2024-03-17T04:10:15;7.30;;;6.50;;
2656;SDS011;1338;48.176;11.792;2024-03-17T04:12:44;6.00;;;5.40;;
2656;SDS011;1338;48.176;11.792;2024-03-17T04:15:11;6.87;;;6.10;;
2656;SDS011;1338;48.176;11.792;2024-03-17T04:17:39;7.27;;;6.17;;
2656;SDS011;1338;48.176;11.792;2024-03-17T04:20:07;6.93;;;6.03;;
2656;SDS011;1338;48.176;11.792;2024-03-17T04:22:36;8.00;;;6.20;;
2656;SDS011;1338;48.176;11.792;2024-03-17T04:25:04;7.30;;;6.40;;
2656;SDS011;1338;48.176;11.792;2024-03-17T04:27:32;6.87;;;6.00;;
2656;SDS011;1338;48.176;11.792;2024-03-17T04:29:59;7.60;;;6.43;;
2656;SDS011;1338;48.176;11.792;2024-03-17T04:32:28;6.97;;;6.27;;
2656;SDS011;1338;48.176;11.792;2024-03-17T04:34:56;7.10;;;6.40;;
2656;SDS011;1338;48.176;11.792;2024-03-17T04:37:24;6.10;;;5.50;;
2656;SDS011;1338;48.176;11.792;2024-03-17T04:39:51;7.00;;;6.30;;
2656;SDS011;1338;48.176;11.792;2024-03-17T04:42:24;6.97;;;6.00;;
2656;SDS011;1338;48.176;11.792;2024-03-17T04:44:51;6.87;;;6.17;;
2656;SDS011;1338;48.176;11.792;2024-03-17T04:47:18;6.50;;;5.90;;
2656;SDS011;1338;48.176;11.792;2024-03-17T04:49:46;6.43;;;5.70;;
2656;SDS011;1338;48.176;11.792;2024-03-17T04:52:16;7.40;;;6.23;;
2656;SDS011;1338;48.176;11.792;2024-03-17T04:54:43;6.23;;;5.73;;
2656;SDS011;1338;48.176;11.792;2024-03-17T04:57:10;6.60;;;5.90;;
2656;SDS011;1338;48.176;11.792;2024-03-17T04:59:39;6.63;;;5.97;;
2656;SDS011;1338;48.176;11.792;2024-03-17T05:02:06;6.70;;;6.13;;
2656;SDS011;1338;48.176;11.792;2024-03-17T05:04:33;6.10;;;5.50;;
2656;SDS011;1338;48.176;11.792;2024-03-17T05:07:01;8.07;;;6.53;;
2656;SDS011;1338;48.176;11.792;2024-03-17T05:09:28;5.70;;;5.20;;
2656;SDS011;1338;48.176;11.792;2024-03-17T05:11:55;7.47;;;5.90;;
2656;SDS011;1338;48.176;11.792;2024-03-17T05:14:22;7.00;;;6.30;;
2656;SDS011;1338;48.176;11.792;2024-03-17T05:16:52;6.77;;;6.17;;
2656;SDS011;1338;48.176;11.792;2024-03-17T05:19:19;7.10;;;6.50;;
2656;SDS011;1338;48.176;11.792;2024-03-17T05:21:46;7.27;;;5.90;;
2656;SDS011;1338;48.176;11.792;2024-03-17T05:24:13;7.00;;;6.30;;
2656;SDS011;1338;48.176;11.792;2024-03-17T05:26:41;6.37;;;5.57;;
2656;SDS011;1338;48.176;11.792;2024-03-17T05:29:08;8.20;;;6.83;;
2656;SDS011;1338;48.176;11.792;2024-03-17T05:31:35;7.63;;;5.97;;
2656;SDS011;1338;48.176;11.792;2024-03-17T05:34:05;7.17;;;6.47;;
2656;SDS011;1338;48.176;11.792;2024-03-17T05:36:34;6.90;;;5.83;;
2656;SDS011;1338;48.176;11.792;2024-03-17T05:39:01;7.60;;;6.60;;
2656;SDS011;1338;48.176;11.792;2024-03-17T05:41:32;6.40;;;5.53;;
2656;SDS011;1338;48.176;11.792;2024-03-17T05:44:00;7.53;;;6.60;;
2656;SDS011;1338;48.176;11.792;2024-03-17T05:46:29;7.33;;;6.43;;
2656;SDS011;1338;48.176;11.792;2024-03-17T05:48:56;6.47;;;5.47;;
2656;SDS011;1338;48.176;11.792;2024-03-17T05:51:25;7.73;;;6.17;;
2656;SDS011;1338;48.176;11.792;2024-03-17T05:53:53;6.77;;;6.10;;
2656;SDS011;1338;48.176;11.792;2024-03-17T05:56:21;6.20;;;5.60;;
2656;SDS011;1338;48.176;11.792;2024-03-17T05:58:49;6.83;;;6.13;;
2656;SDS011;1338;48.176;11.792;2024-03-17T06:01:16;5.97;;;5.40;;
2656;SDS011;1338;48.176;11.792;2024-03-17T06:03:45;7.60;;;5.40;;
2656;SDS011;1338;48.176;11.792;2024-03-17T06:06:12;6.83;;;6.03;;
2656;SDS011;1338;48.176;11.792;2024-03-17T06:08:41;6.20;;;5.60;;
2656;SDS011;1338;48.176;11.792;2024-03-17T06:11:08;6.87;;;6.17;;
2656;SDS011;1338;48.176;11.792;2024-03-17T06:13:37;8.20;;;7.20;;
2656;SDS011;1338;48.176;11.792;2024-03-17T06:16:04;7.40;;;6.70;;
2656;SDS011;1338;48.176;11.792;2024-03-17T06:18:32;7.40;;;6.70;;
2656;SDS011;1338;48.176;11.792;2024-03-17T06:20:59;6.43;;;5.80;;
2656;SDS011;1338;48.176;11.792;2024-03-17T06:23:26;9.50;;;6.20;;
2656;SDS011;1338;48.176;11.792;2024-03-17T06:25:55;6.93;;;6.23;;
2656;SDS011;1338;48.176;11.792;2024-03-17T06:28:22;9.17;;;7.23;;
2656;SDS011;1338;48.176;11.792;2024-03-17T06:30:55;7.20;;;6.47;;
2656;SDS011;1338;48.176;11.792;2024-03-17T06:33:24;6.97;;;6.27;;
2656;SDS011;1338;48.176;11.792;2024-03-17T06:35:53;6.80;;;6.10;;
2656;SDS011;1338;48.176;11.792;2024-03-17T06:38:21;8.10;;;7.17;;
2656;SDS011;1338;48.176;11.792;2024-03-17T06:40:48;7.83;;;6.30;;
2656;SDS011;1338;48.176;11.792;2024-03-17T06:43:17;8.07;;;6.63;;
2656;SDS011;1338;48.176;11.792;2024-03-17T06:45:53;8.10;;;6.80;;
2656;SDS011;1338;48.176;11.792;2024-03-17T06:48:22;7.90;;;7.00;;
2656;SDS011;1338;48.176;11.792;2024-03-17T06:50:49;8.17;;;7.33;;
2656;SDS011;1338;48.176;11.792;2024-03-17T06:53:18;9.70;;;7.23;;
2656;SDS011;1338;48.176;11.792;2024-03-17T06:55:51;8.30;;;6.83;;
2656;SDS011;1338;48.176;11.792;2024-03-17T06:58:21;7.67;;;5.97;;
2656;SDS011;1338;48.176;11.792;2024-03-17T07:00:55;8.73;;;7.00;;
2656;SDS011;1338;48.176;11.792;2024-03-17T07:03:23;9.00;;;7.43;;
2656;SDS011;1338;48.176;11.792;2024-03-17T07:05:53;8.00;;;7.20;;
2656;SDS011;1338;48.176;11.792;2024-03-17T07:08:21;8.63;;;7.50;;
2656;SDS011;1338;48.176;11.792;2024-03-17T07:10:55;9.10;;;7.37;;
2656;SDS011;1338;48.176;11.792;2024-03-17T07:13:24;8.60;;;7.40;;
2656;SDS011;1338;48.176;11.792;2024-03-17T07:15:52;10.90;;;8.33;;
2656;SDS011;1338;48.176;11.792;2024-03-17T07:18:19;9.67;;;7.60;;
2656;SDS011;1338;48.176;11.792;2024-03-17T07:20:46;9.87;;;7.60;;
2656;SDS011;1338;48.176;11.792;2024-03-17T07:23:14;8.30;;;7.50;;
2656;SDS011;1338;48.176;11.792;2024-03-17T07:25:42;7.63;;;6.83;;
2656;SDS011;1338;48.176;11.792;2024-03-17T07:28:09;8.63;;;7.40;;
2656;SDS011;1338;48.176;11.792;2024-03-17T07:30:37;6.70;;;6.00;;
2656;SDS011;1338;48.176;11.792;2024-03-17T07:33:15;5.93;;;5.43;;
2656;SDS011;1338;48.176;11.792;2024-03-17T07:35:46;6.20;;;5.00;;
2656;SDS011;1338;48.176;11.792;2024-03-17T07:38:18;8.73;;;6.90;;
2656;SDS011;1338;48.176;11.792;2024-03-17T07:40:45;7.70;;;6.00;;
2656;SDS011;1338;48.176;11.792;2024-03-17T07:43:22;7.50;;;6.73;;
2656;SDS011;1338;48.176;11.792;2024-03-17T07:45:58;7.43;;;5.93;;
2656;SDS011;1338;48.176;11.792;2024-03-17T07:48:29;9.07;;;6.93;;
2656;SDS011;1338;48.176;11.792;2024-03-17T07:50:57;8.93;;;6.13;;
2656;SDS011;1338;48.176;11.792;2024-03-17T07:53:26;7.43;;;5.90;;
2656;SDS011;1338;48.176;11.792;2024-03-17T07:55:57;6.23;;;5.60;;
2656;SDS011;1338;48.176;11.792;2024-03-17T07:58:25;7.40;;;6.10;;
2656;SDS011;1338;48.176;11.792;2024-03-17T08:00:53;5.30;;;4.80;;
2656;SDS011;1338;48.176;11.792;2024-03-17T08:03:26;5.40;;;4.87;;
2656;SDS011;1338;48.176;11.792;2024-03-17T08:05:54;7.07;;;6.00;;
2656;SDS011;1338;48.176;11.792;2024-03-17T08:08:21;5.90;;;4.50;;
2656;SDS011;1338;48.176;11.792;2024-03-17T08:10:49;6.10;;;5.50;;
2656;SDS011;1338;48.176;11.792;2024-03-17T08:13:16;6.03;;;5.40;;
2656;SDS011;1338;48.176;11.792;2024-03-17T08:15:44;5.57;;;5.07;;
2656;SDS011;1338;48.176;11.792;2024-03-17T08:18:14;6.63;;;5.93;;
2656;SDS011;1338;48.176;11.792;2024-03-17T08:20:41;11.20;;;5.30;;
2656;SDS011;1338;48.176;11.792;2024-03-17T08:23:10;5.97;;;5.37;;
2656;SDS011;1338;48.176;11.792;2024-03-17T08:25:40;5.50;;;5.00;;
2656;SDS011;1338;48.176;11.792;2024-03-17T08:28:07;5.70;;;4.97;;
2656;SDS011;1338;48.176;11.792;2024-03-17T08:30:35;5.60;;;5.10;;
2656;SDS011;1338;48.176;11.792;2024-03-17T08:33:02;6.77;;;5.60;;
2656;SDS011;1338;48.176;11.792;2024-03-17T08:35:31;6.47;;;4.47;;
2656;SDS011;1338;48.176;11.792;2024-03-17T08:37:58;6.67;;;6.00;;
2656;SDS011;1338;48.176;11.792;2024-03-17T08:40:26;5.97;;;5.37;;
2656;SDS011;1338;48.176;11.792;2024-03-17T08:42:54;7.63;;;6.90;;
2656;SDS011;1338;48.176;11.792;2024-03-17T08:45:21;5.93;;;5.33;;
2656;SDS011;1338;48.176;11.792;2024-03-17T08:47:50;5.70;;;5.10;;
2656;SDS011;1338;48.176;11.792;2024-03-17T08:50:18;5.30;;;4.80;;
2656;SDS011;1338;48.176;11.792;2024-03-17T08:52:47;6.20;;;5.57;;
2656;SDS011;1338;48.176;11.792;2024-03-17T08:55:16;7.73;;;5.20;;
2656;SDS011;1338;48.176;11.792;2024-03-17T08:57:43;3.50;;;3.20;;
2656;SDS011;1338;48.176;11.792;2024-03-17T09:00:11;5.87;;;5.10;;
2656;SDS011;1338;48.176;11.792;2024-03-17T09:02:40;3.90;;;3.60;;
2656;SDS011;1338;48.176;11.792;2024-03-17T09:05:08;4.60;;;4.20;;
2656;SDS011;1338;48.176;11.792;2024-03-17T09:07:38;5.07;;;4.57;;
2656;SDS011;1338;48.176;11.792;2024-03-17T09:10:07;5.07;;;4.67;;
2656;SDS011;1338;48.176;11.792;2024-03-17T09:12:35;4.80;;;4.30;;
2656;SDS011;1338;48.176;11.792;2024-03-17T09:15:03;4.87;;;4.40;;
2656;SDS011;1338;48.176;11.792;2024-03-17T09:17:31;3.60;;;3.30;;
2656;SDS011;1338;48.176;11.792;2024-03-17T09:19:59;4.40;;;4.00;;
2656;SDS011;1338;48.176;11.792;2024-03-17T09:22:26;4.60;;;4.20;;
2656;SDS011;1338;48.176;11.792;2024-03-17T09:24:57;4.40;;;4.00;;
2656;SDS011;1338;48.176;11.792;2024-03-17T09:27:27;4.13;;;3.73;;
2656;SDS011;1338;48.176;11.792;2024-03-17T09:29:54;5.30;;;4.83;;
2656;SDS011;1338;48.176;11.792;2024-03-17T09:32:24;4.20;;;3.57;;
2656;SDS011;1338;48.176;11.792;2024-03-17T09:34:51;4.97;;;3.93;;
2656;SDS011;1338;48.176;11.792;2024-03-17T09:37:19;3.63;;;3.33;;
2656;SDS011;1338;48.176;11.792;2024-03-17T09:39:47;3.10;;;2.90;;
2656;SDS011;1338;48.176;11.792;2024-03-17T09:42:17;4.40;;;4.00;;
2656;SDS011;1338;48.176;11.792;2024-03-17T09:44:46;6.03;;;5.43;;
2656;SDS011;1338;48.176;11.792;2024-03-17T09:47:18;4.60;;;3.77;;
2656;SDS011;1338;48.176;11.792;2024-03-17T09:49:46;4.63;;;4.23;;
2656;SDS011;1338;48.176;11.792;2024-03-17T09:52:17;4.13;;;3.73;;
2656;SDS011;1338;48.176;11.792;2024-03-17T09:54:48;5.50;;;4.57;;
2656;SDS011;1338;48.176;11.792;2024-03-17T09:57:21;4.27;;;3.87;;
2656;SDS011;1338;48.176;11.792;2024-03-17T09:59:52;3.50;;;3.20;;
2656;SDS011;1338;48.176;11.792;2024-03-17T10:02:20;3.80;;;3.50;;
2656;SDS011;1338;48.176;11.792;2024-03-17T10:04:48;2.77;;;2.57;;
2656;SDS011;1338;48.176;11.792;2024-03-17T10:07:16;3.30;;;3.10;;
2656;SDS011;1338;48.176;11.792;2024-03-17T10:09:43;3.50;;;3.30;;
2656;SDS011;1338;48.176;11.792;2024-03-17T10:12:26;5.43;;;3.87;;
2656;SDS011;1338;48.176;11.792;2024-03-17T10:15:00;4.33;;;3.93;;
2656;SDS011;1338;48.176;11.792;2024-03-17T10:17:31;3.77;;;3.47;;
2656;SDS011;1338;48.176;11.792;2024-03-17T10:20:16;4.10;;;3.80;;
2656;SDS011;1338;48.176;11.792;2024-03-17T10:22:57;4.47;;;4.07;;
2656;SDS011;1338;48.176;11.792;2024-03-17T10:25:25;3.90;;;3.60;;
2656;SDS011;1338;48.176;11.792;2024-03-17T10:27:53;3.77;;;3.47;;
2656;SDS011;1338;48.176;11.792;2024-03-17T10:30:22;4.10;;;3.70;;
2656;SDS011;1338;48.176;11.792;2024-03-17T10:32:52;3.90;;;3.60;;
2656;SDS011;1338;48.176;11.792;2024-03-17T10:35:27;4.10;;;3.77;;
2656;SDS011;1338;48.176;11.792;2024-03-17T10:37:56;3.40;;;3.10;;
2656;SDS011;1338;48.176;11.792;2024-03-17T10:40:25;3.47;;;3.27;;
2656;SDS011;1338;48.176;11.792;2024-03-17T10:42:53;2.97;;;2.77;;
2656;SDS011;1338;48.176;11.792;2024-03-17T10:45:22;3.07;;;2.87;;
2656;SDS011;1338;48.176;11.792;2024-03-17T10:47:50;3.13;;;2.83;;
2656;SDS011;1338;48.176;11.792;2024-03-17T10:50:18;4.50;;;3.53;;
2656;SDS011;1338;48.176;11.792;2024-03-17T10:52:48;3.93;;;3.63;;
2656;SDS011;1338;48.176;11.792;2024-03-17T10:55:20;3.87;;;3.50;;
2656;SDS011;1338;48.176;11.792;2024-03-17T10:57:49;4.60;;;4.20;;
2656;SDS011;1338;48.176;11.792;2024-03-17T11:00:18;3.10;;;2.90;;
2656;SDS011;1338;48.176;11.792;2024-03-17T11:02:49;3.80;;;3.50;;
2656;SDS011;1338;48.176;11.792;2024-03-17T11:05:20;3.17;;;2.50;;
2656;SDS011;1338;48.176;11.792;2024-03-17T11:07:48;4.20;;;3.30;;
2656;SDS011;1338;48.176;11.792;2024-03-17T11:10:21;3.67;;;3.37;;
2656;SDS011;1338;48.176;11.792;2024-03-17T11:12:50;2.40;;;2.20;;
2656;SDS011;1338;48.176;11.792;2024-03-17T11:15:34;3.13;;;2.83;;
2656;SDS011;1338;48.176;11.792;2024-03-17T11:21:22;2.70;;;2.50;;
2656;SDS011;1338;48.176;11.792;2024-03-17T11:23:55;3.40;;;2.97;;
2656;SDS011;1338;48.176;11.792;2024-03-17T11:26:26;2.30;;;2.10;;
2656;SDS011;1338;48.176;11.792;2024-03-17T11:28:54;2.93;;;2.70;;
2656;SDS011;1338;48.176;11.792;2024-03-17T11:31:39;3.80;;;3.20;;
2656;SDS011;1338;48.176;11.792;2024-03-17T11:37:00;3.63;;;3.43;;
2656;SDS011;1338;48.176;11.792;2024-03-17T11:42:17;5.10;;;2.80;;
2656;SDS011;1338;48.176;11.792;2024-03-17T11:44:44;2.87;;;2.67;;
2656;SDS011;1338;48.176;11.792;2024-03-17T11:47:23;3.40;;;2.70;;
2656;SDS011;1338;48.176;11.792;2024-03-17T11:50:01;3.00;;;2.80;;
2656;SDS011;1338;48.176;11.792;2024-03-17T11:52:37;3.63;;;3.33;;
2656;SDS011;1338;48.176;11.792;2024-03-17T11:55:04;3.27;;;2.97;;
2656;SDS011;1338;48.176;11.792;2024-03-17T11:57:32;3.43;;;3.13;;
2656;SDS011;1338;48.176;11.792;2024-03-17T12:00:00;3.10;;;2.80;;
2656;SDS011;1338;48.176;11.792;2024-03-17T12:02:30;2.90;;;2.70;;
2656;SDS011;1338;48.176;11.792;2024-03-17T12:04:58;2.97;;;2.70;;
2656;SDS011;1338;48.176;11.792;2024-03-17T12:07:26;3.10;;;2.70;;
2656;SDS011;1338;48.176;11.792;2024-03-17T12:09:57;2.53;;;2.33;;
2656;SDS011;1338;48.176;11.792;2024-03-17T12:12:24;4.03;;;3.13;;
2656;SDS011;1338;48.176;11.792;2024-03-17T12:15:00;3.00;;;2.80;;
2656;SDS011;1338;48.176;11.792;2024-03-17T12:17:28;3.43;;;3.13;;
2656;SDS011;1338;48.176;11.792;2024-03-17T12:19:55;4.20;;;3.80;;
2656;SDS011;1338;48.176;11.792;2024-03-17T12:22:22;3.30;;;3.00;;
2656;SDS011;1338;48.176;11.792;2024-03-17T12:24:51;2.90;;;2.70;;
2656;SDS011;1338;48.176;11.792;2024-03-17T12:27:20;3.50;;;3.20;;
2656;SDS011;1338;48.176;11.792;2024-03-17T12:29:49;3.00;;;2.70;;
2656;SDS011;1338;48.176;11.792;2024-03-17T12:32:17;2.90;;;2.70;;
2656;SDS011;1338;48.176;11.792;2024-03-17T12:34:46;3.83;;;3.53;;
2656;SDS011;1338;48.176;11.792;2024-03-17T12:37:15;3.50;;;3.03;;
2656;SDS011;1338;48.176;11.792;2024-03-17T12:39:44;2.57;;;2.37;;
2656;SDS011;1338;48.176;11.792;2024-03-17T12:42:12;4.10;;;3.77;;
2656;SDS011;1338;48.176;11.792;2024-03-17T12:44:48;5.93;;;2.30;;
2656;SDS011;1338;48.176;11.792;2024-03-17T12:47:16;3.67;;;3.37;;
2656;SDS011;1338;48.176;11.792;2024-03-17T12:49:45;4.90;;;2.90;;
2656;SDS011;1338;48.176;11.792;2024-03-17T12:52:19;3.83;;;3.47;;
2656;SDS011;1338;48.176;11.792;2024-03-17T12:54:56;4.40;;;2.60;;
2656;SDS011;1338;48.176;11.792;2024-03-17T12:57:45;4.43;;;3.43;;
2656;SDS011;1338;48.176;11.792;2024-03-17T13:00:32;4.27;;;3.87;;
2656;SDS011;1338;48.176;11.792;2024-03-17T13:03:00;2.97;;;2.77;;
2656;SDS011;1338;48.176;11.792;2024-03-17T13:05:29;3.03;;;2.83;;
2656;SDS011;1338;48.176;11.792;2024-03-17T13:07:57;2.67;;;2.47;;
2656;SDS011;1338;48.176;11.792;2024-03-17T13:10:25;2.80;;;2.60;;
2656;SDS011;1338;48.176;11.792;2024-03-17T13:12:59;2.53;;;2.33;;
2656;SDS011;1338;48.176;11.792;2024-03-17T13:15:28;3.43;;;3.13;;
2656;SDS011;1338;48.176;11.792;2024-03-17T13:17:58;4.60;;;4.20;;
2656;SDS011;1338;48.176;11.792;2024-03-17T13:20:26;4.30;;;3.90;;
2656;SDS011;1338;48.176;11.792;2024-03-17T13:22:54;3.97;;;3.67;;
2656;SDS011;1338;48.176;11.792;2024-03-17T13:25:23;4.27;;;3.10;;
2656;SDS011;1338;48.176;11.792;2024-03-17T13:27:53;3.50;;;3.20;;
2656;SDS011;1338;48.176;11.792;2024-03-17T13:30:21;4.03;;;3.63;;
2656;SDS011;1338;48.176;11.792;2024-03-17T13:32:50;3.87;;;3.53;;
2656;SDS011;1338;48.176;11.792;2024-03-17T13:35:23;3.60;;;3.30;;
2656;SDS011;1338;48.176;11.792;2024-03-17T13:37:52;4.00;;;3.70;;
2656;SDS011;1338;48.176;11.792;2024-03-17T13:40:20;3.07;;;2.80;;
2656;SDS011;1338;48.176;11.792;2024-03-17T13:42:49;4.43;;;3.50;;
2656;SDS011;1338;48.176;11.792;2024-03-17T13:45:17;4.27;;;3.97;;
2656;SDS011;1338;48.176;11.792;2024-03-17T13:47:46;4.13;;;3.40;;
2656;SDS011;1338;48.176;11.792;2024-03-17T13:50:16;4.20;;;3.00;;
2656;SDS011;1338;48.176;11.792;2024-03-17T13:52:45;6.70;;;4.07;;
2656;SDS011;1338;48.176;11.792;2024-03-17T13:55:13;3.97;;;3.57;;
2656;SDS011;1338;48.176;11.792;2024-03-17T13:57:42;4.03;;;3.60;;
2656;SDS011;1338;48.176;11.792;2024-03-17T14:00:11;4.03;;;2.77;;
2656;SDS011;1338;48.176;11.792;2024-03-17T14:02:41;4.43;;;3.47;;
2656;SDS011;1338;48.176;11.792;2024-03-17T14:05:10;2.70;;;2.50;;
2656;SDS011;1338;48.176;11.792;2024-03-17T14:07:39;3.40;;;3.10;;
2656;SDS011;1338;48.176;11.792;2024-03-17T14:10:08;2.87;;;2.67;;
2656;SDS011;1338;48.176;11.792;2024-03-17T14:12:36;3.00;;;2.60;;
2656;SDS011;1338;48.176;11.792;2024-03-17T14:15:05;3.43;;;3.13;;
2656;SDS011;1338;48.176;11.792;2024-03-17T14:17:36;3.20;;;2.90;;
2656;SDS011;1338;48.176;11.792;2024-03-17T14:20:03;3.50;;;3.20;;
2656;SDS011;1338;48.176;11.792;2024-03-17T14:22:34;4.37;;;3.37;;
2656;SDS011;1338;48.176;11.792;2024-03-17T14:25:02;3.50;;;2.90;;
2656;SDS011;1338;48.176;11.792;2024-03-17T14:27:31;3.37;;;3.07;;
2656;SDS011;1338;48.176;11.792;2024-03-17T14:29:58;3.57;;;2.97;;
2656;SDS011;1338;48.176;11.792;2024-03-17T14:32:26;3.40;;;3.10;;
2656;SDS011;1338;48.176;11.792;2024-03-17T14:34:54;3.40;;;3.10;;
2656;SDS011;1338;48.176;11.792;2024-03-17T14:41:30;3.40;;;2.90;;
2656;SDS011;1338;48.176;11.792;2024-03-17T14:43:59;4.83;;;2.90;;
2656;SDS011;1338;48.176;11.792;2024-03-17T14:47:19;3.40;;;2.53;;
2656;SDS011;1338;48.176;11.792;2024-03-17T14:49:46;3.80;;;2.80;;
2656;SDS011;1338;48.176;11.792;2024-03-17T14:52:13;5.10;;;2.93;;
2656;SDS011;1338;48.176;11.792;2024-03-17T14:54:40;3.33;;;3.03;;
2656;SDS011;1338;48.176;11.792;2024-03-17T14:57:08;4.17;;;2.80;;
2656;SDS011;1338;48.176;11.792;2024-03-17T14:59:37;3.23;;;2.90;;
2656;SDS011;1338;48.176;11.792;2024-03-17T15:02:05;2.30;;;2.10;;
2656;SDS011;1338;48.176;11.792;2024-03-17T15:04:34;3.00;;;2.80;;
2656;SDS011;1338;48.176;11.792;2024-03-17T15:07:01;3.20;;;2.40;;
2656;SDS011;1338;48.176;11.792;2024-03-17T15:09:28;3.00;;;2.80;;
2656;SDS011;1338;48.176;11.792;2024-03-17T15:11:57;2.97;;;2.70;;
2656;SDS011;1338;48.176;11.792;2024-03-17T15:14:25;2.50;;;2.30;;
2656;SDS011;1338;48.176;11.792;2024-03-17T15:16:55;2.90;;;2.47;;
2656;SDS011;1338;48.176;11.792;2024-03-17T15:19:22;4.50;;;3.23;;
2656;SDS011;1338;48.176;11.792;2024-03-17T15:21:49;3.90;;;2.73;;
2656;SDS011;1338;48.176;11.792;2024-03-17T15:24:17;2.70;;;2.50;;